ADDS METAR Data INFO
IDs: Format: Raw Decoded Include TAF

Data at: 1812 UTC 18 Feb 2018

KHDE 181755Z AUTO 20021G28KT 10SM CLR 10/M01 A2958 RMK AO2 T00991013 10099 20040
KHDE 181735Z AUTO 20019G27KT 10SM CLR 09/M02 A2960 RMK AO2 T00931016
KHDE 181715Z AUTO 19017G25KT 10SM CLR 09/M02 A2961 RMK AO2 T00911018
KHDE 181655Z AUTO 20017G22KT 10SM CLR 09/M02 A2962 RMK AO2 T00931018
KHDE 181635Z AUTO 19018G30KT 10SM CLR 09/M02 A2962 RMK AO2 T00861022
KHDE 181615Z AUTO 19020G26KT 10SM CLR 08/M02 A2963 RMK AO2 T00831023
KHDE 181555Z AUTO 19017G27KT 10SM CLR 08/M03 A2963 RMK AO2 T00811026
KHDE 181535Z AUTO 19019G26KT 10SM CLR 08/M03 A2965 RMK AO2 T00781031
KHDE 181515Z AUTO 18013G18KT 10SM CLR 07/M03 A2966 RMK AO2 T00681033
KHDE 181455Z AUTO 18013G21KT 10SM CLR 06/M03 A2965 RMK AO2 T00591035
KHDE 181435Z AUTO 18014G21KT 10SM CLR 05/M03 A2965 RMK AO2 T00531033
KHDE 181415Z AUTO 18018G24KT 10SM CLR 05/M03 A2965 RMK AO2 T00501033
KHDE 181355Z AUTO 19018G26KT 10SM CLR 05/M03 A2966 RMK AO2 T00461035
KHDE 181335Z AUTO 19018KT 10SM CLR 04/M04 A2967 RMK AO2 T00441037
KHDE 181315Z AUTO 19018G23KT 10SM CLR 04/M04 A2969 RMK AO2 T00421040
KHDE 181255Z AUTO 19020G28KT 10SM CLR 05/M04 A2969 RMK AO2 T00451043
KHDE 181235Z AUTO 19020G28KT 10SM CLR 04/M05 A2969 RMK AO2 T00431047
KHDE 181215Z AUTO 19020G28KT 10SM CLR 04/M05 A2971 RMK AO2 T00401052
KHDE 181155Z AUTO 19018G26KT 10SM CLR 04/M05 A2971 RMK AO2 T00391055 10039 21002
KHDE 181135Z AUTO 18019G24KT 10SM CLR 03/M05 A2972 RMK AO2 T00311055
KHDE 181115Z AUTO 18016G22KT 10SM CLR 03/M06 A2974 RMK AO2 T00311056
KHDE 181055Z AUTO 18016G24KT 10SM CLR 03/M06 A2975 RMK AO2 T00321058
KHDE 181035Z AUTO 18014G17KT 10SM CLR 03/M06 A2976 RMK AO2 T00301061
KHDE 181015Z AUTO 18015KT 10SM CLR 03/M06 A2977 RMK AO2 T00301065
KHDE 180955Z AUTO 18017G21KT 10SM CLR 03/M07 A2978 RMK AO2 T00271068
KHDE 180935Z AUTO 18014G19KT 10SM CLR 02/M07 A2980 RMK AO2 T00221072
KHDE 180915Z AUTO 18016G22KT 10SM CLR 03/M07 A2981 RMK AO2 T00251073
KHDE 180855Z AUTO 18018G21KT 10SM CLR 02/M07 A2983 RMK AO2 T00221071
KHDE 180835Z AUTO 18015G22KT 10SM CLR 02/M07 A2984 RMK AO2 T00221071
KHDE 180815Z AUTO 18018G28KT 10SM CLR 03/M07 A2985 RMK AO2 T00251072
KHDE 180755Z AUTO 18020G30KT 10SM CLR 03/M07 A2986 RMK AO2 T00321075
KHDE 180735Z AUTO 19018G21KT 10SM CLR 03/M07 A2987 RMK AO2 T00281070
KHDE 180715Z AUTO 18016G22KT 10SM CLR 02/M07 A2988 RMK AO2 T00161068
KHDE 180655Z AUTO 18013G19KT 10SM CLR 01/M06 A2990 RMK AO2 T00121065
KHDE 180635Z AUTO 17011G17KT 10SM CLR 00/M06 A2991 RMK AO2 T00041061
KHDE 180615Z AUTO 15012KT 10SM CLR 00/M06 A2993 RMK AO2 T10011056
KHDE 180555Z AUTO 16012G18KT 10SM CLR 01/M06 A2994 RMK AO2 T00051056 10048 21021 400921049
KHDE 180535Z AUTO 16014KT 10SM CLR 01/M05 A2995 RMK AO2 T00061055
KHDE 180515Z AUTO 16013KT 10SM CLR 01/M05 A2997 RMK AO2 T00131055
KHDE 180455Z AUTO 17012KT 10SM CLR 01/M05 A2998 RMK AO2 T00121052
KHDE 180435Z AUTO 17012KT 10SM CLR 01/M05 A2998 RMK AO2 T00071050
KHDE 180415Z AUTO 17010KT 10SM CLR 01/M05 A3000 RMK AO2 T00141048
KHDE 180355Z AUTO 16010KT 10SM CLR 01/M05 A3001 RMK AO2 T00051046
KHDE 180335Z AUTO 16008KT 10SM CLR 00/M05 A3001 RMK AO2 T10051050
KHDE 180315Z AUTO 15008KT 10SM CLR M01/M05 A3002 RMK AO2 T10091053
KHDE 180255Z AUTO 15008KT 10SM CLR M01/M05 A3002 RMK AO2 T10071050
KHDE 180235Z AUTO 14009KT 10SM CLR M02/M05 A3004 RMK AO2 T10171053
KHDE 180215Z AUTO 14007KT 10SM CLR M01/M05 A3005 RMK AO2 T10101051
KHDE 180155Z AUTO 15007KT 10SM CLR M01/M05 A3005 RMK AO2 T10081051
KHDE 180135Z AUTO 15007KT 10SM CLR 01/M05 A3006 RMK AO2 T00051050
KHDE 180115Z AUTO 15007KT 10SM CLR M01/M05 A3007 RMK AO2 T10151053
KHDE 180055Z AUTO 13005KT 10SM CLR M01/M06 A3006 RMK AO2 T10101057
KHDE 180035Z AUTO 12004KT 10SM CLR 02/M04 A3006 RMK AO2 T00221042
KHDE 180015Z AUTO 10004KT 10SM CLR 04/M04 A3005 RMK AO2 T00411042
KHDE 172355Z AUTO 07005KT 10SM CLR 05/M04 A3006 RMK AO2 T00531038 10092 20053
KHDE 172335Z AUTO 03004KT 10SM CLR 07/M04 A3006 RMK AO2 T00651038
KHDE 172315Z AUTO 00000KT 10SM CLR 08/M05 A3007 RMK AO2 T00831046
KHDE 172255Z AUTO 00000KT 10SM CLR 09/M04 A3007 RMK AO2 T00851045
KHDE 172235Z AUTO 33004KT 10SM CLR 09/M05 A3007 RMK AO2 T00861048
KHDE 172215Z AUTO 33008KT 10SM CLR 09/M05 A3007 RMK AO2 T00891046
KHDE 172155Z AUTO 31007G10KT 10SM CLR 09/M05 A3007 RMK AO2 T00911049
KHDE 172135Z AUTO 29009KT 10SM CLR 09/M05 A3007 RMK AO2 T00901047
KHDE 172115Z AUTO 31011G15KT 10SM CLR 09/M05 A3007 RMK AO2 T00901049
KHDE 172055Z AUTO 31012G18KT 10SM CLR 09/M05 A3006 RMK AO2 T00901046
KHDE 172035Z AUTO 31015G21KT 10SM CLR 09/M05 A3007 RMK AO2 T00891048
KHDE 172015Z AUTO 30011G16KT 10SM CLR 09/M04 A3007 RMK AO2 T00911042
KHDE 171955Z AUTO 30013G19KT 10SM CLR 09/M05 A3007 RMK AO2 T00851052
KHDE 171935Z AUTO 30012G19KT 10SM CLR 09/M04 A3007 RMK AO2 T00861043
KHDE 171915Z AUTO 31017G20KT 10SM CLR 09/M04 A3008 RMK AO2 T00851042
KHDE 171855Z AUTO 31011G16KT 10SM CLR 08/M04 A3007 RMK AO2 T00831042
KHDE 171835Z AUTO 31013G20KT 10SM CLR 08/M04 A3008 RMK AO2 T00791040
KHDE 171815Z AUTO 30012G17KT 10SM CLR 08/M05 A3008 RMK AO2 T00751050
KHDE 171755Z AUTO 29008G14KT 10SM CLR 07/M05 A3008 RMK AO2 T00731050 10074 21049
KHDE 171735Z AUTO 30008KT 10SM CLR 07/M04 A3007 RMK AO2 T00681040
KHDE 171715Z AUTO 30008KT 10SM CLR 06/M04 A3007 RMK AO2 T00601041
KHDE 171655Z AUTO 32010KT 10SM CLR 05/M04 A3006 RMK AO2 T00521041
KHDE 171635Z AUTO 31010KT 10SM CLR 05/M03 A3005 RMK AO2 T00451035
KHDE 171615Z AUTO 30010KT 10SM CLR 03/M03 A3004 RMK AO2 T00301034
KHDE 171555Z AUTO 30011G17KT 10SM CLR 02/M03 A3002 RMK AO2 T00221031
KHDE 171535Z AUTO 31011KT 10SM CLR 01/M04 A3001 RMK AO2 T00131036
KHDE 171515Z AUTO 32009KT 10SM CLR 00/M04 A3000 RMK AO2 T00021039
KHDE 171455Z AUTO 31008KT 10SM CLR 00/M04 A2999 RMK AO2 T00001040
KHDE 171435Z AUTO 30006KT 10SM CLR M02/M05 A2999 RMK AO2 T10171047
KHDE 171415Z AUTO 30007KT 10SM CLR M03/M06 A2997 RMK AO2 T10311059
KHDE 171355Z AUTO 30007KT 10SM CLR M04/M07 A2997 RMK AO2 T10441066
KHDE 171335Z AUTO 29005KT 10SM CLR M05/M07 A2996 RMK AO2 T10471072
KHDE 171315Z AUTO 29006KT 10SM CLR M04/M07 A2993 RMK AO2 T10421069
KHDE 171255Z AUTO 27008KT 10SM CLR M05/M07 A2993 RMK AO2 T10461073
KHDE 171235Z AUTO 28009KT 10SM CLR M05/M08 A2992 RMK AO2 T10471076
KHDE 171215Z AUTO 27007KT 10SM CLR M04/M08 A2991 RMK AO2 T10401076
KHDE 171155Z AUTO 25009KT 10SM CLR M04/M07 A2990 RMK AO2 T10361074 11020 21041
KHDE 171135Z AUTO 24009KT 10SM CLR M04/M08 A2989 RMK AO2 T10381077
KHDE 171115Z AUTO 23010G15KT 10SM CLR M04/M08 A2987 RMK AO2 T10381076
KHDE 171055Z AUTO 22011KT 10SM CLR M04/M07 A2986 RMK AO2 T10411075
KHDE 171035Z AUTO 22010KT 10SM CLR M04/M08 A2985 RMK AO2 T10401077
KHDE 171015Z AUTO 21011KT 10SM CLR M04/M08 A2985 RMK AO2 T10361076
KHDE 170955Z AUTO 21011G15KT 10SM CLR M03/M07 A2986 RMK AO2 T10351075
KHDE 170935Z AUTO 21008G16KT 10SM CLR M03/M07 A2987 RMK AO2 T10311075
KHDE 170915Z AUTO 19008KT 10SM CLR M03/M07 A2986 RMK AO2 T10301075
KHDE 170855Z AUTO 20009KT 10SM CLR M03/M07 A2987 RMK AO2 T10301073
KHDE 170835Z AUTO 19007KT 10SM CLR M03/M07 A2989 RMK AO2 T10311075
KHDE 170815Z AUTO 20008KT 10SM CLR M03/M07 A2990 RMK AO2 T10321075
KHDE 170755Z AUTO 22005KT 10SM CLR M03/M07 A2991 RMK AO2 T10301075
KHDE 170735Z AUTO 19009KT 10SM CLR M02/M07 A2991 RMK AO2 T10251075
KHDE 170715Z AUTO 18007KT 10SM CLR M02/M07 A2990 RMK AO2 T10231072
KHDE 170655Z AUTO 18009KT 10SM CLR M02/M07 A2990 RMK AO2 T10221071
KHDE 170635Z AUTO 18010G14KT 10SM CLR M02/M07 A2991 RMK AO2 T10211071
KHDE 170615Z AUTO 17010KT 10SM CLR M02/M07 A2991 RMK AO2 T10211072